sensor_id;sensor_type;location;lat;lon;timestamp;P1;durP1;ratioP1;P2;durP2;ratioP2
77152;SDS011;66124;51.146;17.072;2023-01-30T00:01:26;15.70;;;7.70;;
77152;SDS011;66124;51.146;17.072;2023-01-30T00:03:57;11.20;;;6.00;;
77152;SDS011;66124;51.146;17.072;2023-01-30T00:06:28;9.90;;;5.40;;
77152;SDS011;66124;51.146;17.072;2023-01-30T00:08:57;13.90;;;6.30;;
77152;SDS011;66124;51.146;17.072;2023-01-30T00:11:27;8.30;;;4.60;;
77152;SDS011;66124;51.146;17.072;2023-01-30T00:13:56;9.70;;;5.10;;
77152;SDS011;66124;51.146;17.072;2023-01-30T00:16:26;11.50;;;6.00;;
77152;SDS011;66124;51.146;17.072;2023-01-30T00:18:56;9.90;;;5.00;;
77152;SDS011;66124;51.146;17.072;2023-01-30T00:21:25;10.40;;;3.80;;
77152;SDS011;66124;51.146;17.072;2023-01-30T00:23:57;14.40;;;6.40;;
77152;SDS011;66124;51.146;17.072;2023-01-30T00:26:26;8.60;;;4.00;;
77152;SDS011;66124;51.146;17.072;2023-01-30T00:28:56;13.70;;;6.80;;
77152;SDS011;66124;51.146;17.072;2023-01-30T00:31:25;9.00;;;4.10;;
77152;SDS011;66124;51.146;17.072;2023-01-30T00:33:54;14.30;;;6.80;;
77152;SDS011;66124;51.146;17.072;2023-01-30T00:36:23;13.90;;;6.30;;
77152;SDS011;66124;51.146;17.072;2023-01-30T00:38:55;7.50;;;3.40;;
77152;SDS011;66124;51.146;17.072;2023-01-30T00:41:25;11.20;;;5.70;;
77152;SDS011;66124;51.146;17.072;2023-01-30T00:43:55;8.30;;;4.00;;
77152;SDS011;66124;51.146;17.072;2023-01-30T00:46:25;8.70;;;3.90;;
77152;SDS011;66124;51.146;17.072;2023-01-30T00:48:57;12.20;;;4.90;;
77152;SDS011;66124;51.146;17.072;2023-01-30T00:51:26;9.80;;;5.30;;
77152;SDS011;66124;51.146;17.072;2023-01-30T00:53:58;16.00;;;6.90;;
77152;SDS011;66124;51.146;17.072;2023-01-30T00:58:56;7.60;;;3.40;;
77152;SDS011;66124;51.146;17.072;2023-01-30T01:01:25;9.80;;;4.90;;
77152;SDS011;66124;51.146;17.072;2023-01-30T01:03:54;10.60;;;5.20;;
77152;SDS011;66124;51.146;17.072;2023-01-30T01:06:23;6.50;;;2.80;;
77152;SDS011;66124;51.146;17.072;2023-01-30T01:08:53;12.10;;;6.60;;
77152;SDS011;66124;51.146;17.072;2023-01-30T01:22:45;12.90;;;5.20;;
77152;SDS011;66124;51.146;17.072;2023-01-30T01:25:15;9.90;;;4.90;;
77152;SDS011;66124;51.146;17.072;2023-01-30T01:27:44;12.40;;;5.70;;
77152;SDS011;66124;51.146;17.072;2023-01-30T01:30:14;12.50;;;5.60;;
77152;SDS011;66124;51.146;17.072;2023-01-30T01:32:44;8.90;;;4.60;;
77152;SDS011;66124;51.146;17.072;2023-01-30T01:35:14;9.80;;;4.70;;
77152;SDS011;66124;51.146;17.072;2023-01-30T01:37:43;8.30;;;4.20;;
77152;SDS011;66124;51.146;17.072;2023-01-30T01:40:16;11.10;;;4.50;;
77152;SDS011;66124;51.146;17.072;2023-01-30T01:42:47;10.70;;;5.30;;
77152;SDS011;66124;51.146;17.072;2023-01-30T01:45:17;10.00;;;4.80;;
77152;SDS011;66124;51.146;17.072;2023-01-30T01:47:52;15.30;;;7.30;;
77152;SDS011;66124;51.146;17.072;2023-01-30T01:50:28;7.60;;;4.00;;
77152;SDS011;66124;51.146;17.072;2023-01-30T01:53:07;11.50;;;5.00;;
77152;SDS011;66124;51.146;17.072;2023-01-30T01:55:38;7.10;;;3.40;;
77152;SDS011;66124;51.146;17.072;2023-01-30T01:58:10;7.80;;;3.50;;
77152;SDS011;66124;51.146;17.072;2023-01-30T02:00:44;12.80;;;6.00;;
77152;SDS011;66124;51.146;17.072;2023-01-30T02:03:16;10.20;;;5.10;;
77152;SDS011;66124;51.146;17.072;2023-01-30T02:05:52;9.80;;;5.20;;
77152;SDS011;66124;51.146;17.072;2023-01-30T02:08:24;12.80;;;5.80;;
77152;SDS011;66124;51.146;17.072;2023-01-30T02:10:58;9.50;;;4.70;;
77152;SDS011;66124;51.146;17.072;2023-01-30T02:13:31;11.80;;;5.80;;
77152;SDS011;66124;51.146;17.072;2023-01-30T02:16:02;9.80;;;4.70;;
77152;SDS011;66124;51.146;17.072;2023-01-30T02:21:14;8.00;;;4.70;;
77152;SDS011;66124;51.146;17.072;2023-01-30T02:24:15;7.60;;;3.50;;
77152;SDS011;66124;51.146;17.072;2023-01-30T02:27:08;11.40;;;4.90;;
77152;SDS011;66124;51.146;17.072;2023-01-30T02:35:23;8.60;;;4.30;;
77152;SDS011;66124;51.146;17.072;2023-01-30T02:47:28;9.80;;;5.30;;
77152;SDS011;66124;51.146;17.072;2023-01-30T02:50:05;8.80;;;4.70;;
77152;SDS011;66124;51.146;17.072;2023-01-30T02:52:40;11.00;;;6.10;;
77152;SDS011;66124;51.146;17.072;2023-01-30T02:55:16;8.70;;;3.30;;
77152;SDS011;66124;51.146;17.072;2023-01-30T02:57:47;3.70;;;2.30;;
77152;SDS011;66124;51.146;17.072;2023-01-30T03:00:21;7.00;;;3.90;;
77152;SDS011;66124;51.146;17.072;2023-01-30T03:03:08;11.40;;;5.30;;
77152;SDS011;66124;51.146;17.072;2023-01-30T03:08:31;8.20;;;4.90;;
77152;SDS011;66124;51.146;17.072;2023-01-30T03:11:08;9.70;;;4.50;;
77152;SDS011;66124;51.146;17.072;2023-01-30T03:13:41;7.10;;;3.60;;
77152;SDS011;66124;51.146;17.072;2023-01-30T03:16:20;11.20;;;6.00;;
77152;SDS011;66124;51.146;17.072;2023-01-30T03:18:52;8.00;;;4.00;;
77152;SDS011;66124;51.146;17.072;2023-01-30T03:21:22;9.60;;;5.10;;
77152;SDS011;66124;51.146;17.072;2023-01-30T03:23:52;10.10;;;5.90;;
77152;SDS011;66124;51.146;17.072;2023-01-30T03:26:22;11.60;;;5.50;;
77152;SDS011;66124;51.146;17.072;2023-01-30T03:28:56;11.30;;;5.60;;
77152;SDS011;66124;51.146;17.072;2023-01-30T03:31:27;7.80;;;4.30;;
77152;SDS011;66124;51.146;17.072;2023-01-30T03:33:56;6.30;;;3.90;;
77152;SDS011;66124;51.146;17.072;2023-01-30T03:36:26;7.90;;;4.40;;
77152;SDS011;66124;51.146;17.072;2023-01-30T03:38:56;7.90;;;3.90;;
77152;SDS011;66124;51.146;17.072;2023-01-30T03:41:25;10.00;;;5.20;;
77152;SDS011;66124;51.146;17.072;2023-01-30T03:43:55;9.00;;;4.70;;
77152;SDS011;66124;51.146;17.072;2023-01-30T03:46:24;8.70;;;5.10;;
77152;SDS011;66124;51.146;17.072;2023-01-30T03:48:54;8.50;;;4.30;;
77152;SDS011;66124;51.146;17.072;2023-01-30T03:51:24;10.90;;;6.40;;
77152;SDS011;66124;51.146;17.072;2023-01-30T03:53:53;7.60;;;4.10;;
77152;SDS011;66124;51.146;17.072;2023-01-30T03:56:23;5.90;;;3.20;;
77152;SDS011;66124;51.146;17.072;2023-01-30T03:58:52;6.50;;;3.70;;
77152;SDS011;66124;51.146;17.072;2023-01-30T04:06:47;5.40;;;2.80;;
77152;SDS011;66124;51.146;17.072;2023-01-30T04:09:17;7.10;;;4.30;;
77152;SDS011;66124;51.146;17.072;2023-01-30T04:11:47;8.20;;;4.20;;
77152;SDS011;66124;51.146;17.072;2023-01-30T04:14:16;10.50;;;5.20;;
77152;SDS011;66124;51.146;17.072;2023-01-30T04:16:45;5.80;;;3.60;;
77152;SDS011;66124;51.146;17.072;2023-01-30T04:19:16;8.10;;;4.60;;
77152;SDS011;66124;51.146;17.072;2023-01-30T04:21:45;5.20;;;2.70;;
77152;SDS011;66124;51.146;17.072;2023-01-30T04:24:15;5.10;;;3.20;;
77152;SDS011;66124;51.146;17.072;2023-01-30T04:26:44;5.40;;;2.90;;
77152;SDS011;66124;51.146;17.072;2023-01-30T04:29:14;9.10;;;4.40;;
77152;SDS011;66124;51.146;17.072;2023-01-30T04:31:43;5.50;;;2.80;;
77152;SDS011;66124;51.146;17.072;2023-01-30T04:34:12;8.10;;;4.00;;
77152;SDS011;66124;51.146;17.072;2023-01-30T04:36:42;10.50;;;4.20;;
77152;SDS011;66124;51.146;17.072;2023-01-30T04:39:11;8.90;;;4.80;;
77152;SDS011;66124;51.146;17.072;2023-01-30T04:41:41;6.90;;;3.30;;
77152;SDS011;66124;51.146;17.072;2023-01-30T04:44:10;7.70;;;3.30;;
77152;SDS011;66124;51.146;17.072;2023-01-30T04:46:39;7.40;;;3.90;;
77152;SDS011;66124;51.146;17.072;2023-01-30T04:49:09;8.70;;;4.10;;
77152;SDS011;66124;51.146;17.072;2023-01-30T04:51:39;6.00;;;2.60;;
77152;SDS011;66124;51.146;17.072;2023-01-30T04:54:08;9.40;;;4.60;;
77152;SDS011;66124;51.146;17.072;2023-01-30T04:56:37;4.90;;;3.00;;
77152;SDS011;66124;51.146;17.072;2023-01-30T04:59:07;9.00;;;5.00;;
77152;SDS011;66124;51.146;17.072;2023-01-30T05:01:36;5.50;;;2.60;;
77152;SDS011;66124;51.146;17.072;2023-01-30T05:04:06;7.60;;;4.00;;
77152;SDS011;66124;51.146;17.072;2023-01-30T05:06:36;9.10;;;4.70;;
77152;SDS011;66124;51.146;17.072;2023-01-30T05:09:06;9.20;;;4.70;;
77152;SDS011;66124;51.146;17.072;2023-01-30T05:11:35;11.10;;;3.90;;
77152;SDS011;66124;51.146;17.072;2023-01-30T05:14:05;11.90;;;5.50;;
77152;SDS011;66124;51.146;17.072;2023-01-30T05:16:34;6.80;;;3.70;;
77152;SDS011;66124;51.146;17.072;2023-01-30T05:23:10;7.80;;;4.20;;
77152;SDS011;66124;51.146;17.072;2023-01-30T05:25:39;10.00;;;5.50;;
77152;SDS011;66124;51.146;17.072;2023-01-30T05:28:08;9.40;;;5.00;;
77152;SDS011;66124;51.146;17.072;2023-01-30T05:30:38;11.00;;;5.40;;
77152;SDS011;66124;51.146;17.072;2023-01-30T05:33:07;9.30;;;5.10;;
77152;SDS011;66124;51.146;17.072;2023-01-30T05:35:38;9.60;;;4.50;;
77152;SDS011;66124;51.146;17.072;2023-01-30T05:38:12;9.00;;;4.40;;
77152;SDS011;66124;51.146;17.072;2023-01-30T05:40:41;6.60;;;3.20;;
77152;SDS011;66124;51.146;17.072;2023-01-30T05:43:11;9.10;;;4.60;;
77152;SDS011;66124;51.146;17.072;2023-01-30T05:45:40;10.10;;;3.90;;
77152;SDS011;66124;51.146;17.072;2023-01-30T05:48:09;6.30;;;3.50;;
77152;SDS011;66124;51.146;17.072;2023-01-30T05:50:39;11.20;;;5.90;;
77152;SDS011;66124;51.146;17.072;2023-01-30T05:53:08;8.40;;;4.10;;
77152;SDS011;66124;51.146;17.072;2023-01-30T05:55:37;6.60;;;3.90;;
77152;SDS011;66124;51.146;17.072;2023-01-30T05:58:07;10.10;;;5.90;;
77152;SDS011;66124;51.146;17.072;2023-01-30T06:00:36;9.10;;;5.00;;
77152;SDS011;66124;51.146;17.072;2023-01-30T06:03:06;8.40;;;3.60;;
77152;SDS011;66124;51.146;17.072;2023-01-30T06:05:38;7.70;;;4.30;;
77152;SDS011;66124;51.146;17.072;2023-01-30T06:10:35;8.10;;;4.40;;
77152;SDS011;66124;51.146;17.072;2023-01-30T06:13:05;5.10;;;2.90;;
77152;SDS011;66124;51.146;17.072;2023-01-30T06:15:34;3.80;;;2.30;;
77152;SDS011;66124;51.146;17.072;2023-01-30T06:18:04;9.10;;;4.40;;
77152;SDS011;66124;51.146;17.072;2023-01-30T06:20:33;5.50;;;2.80;;
77152;SDS011;66124;51.146;17.072;2023-01-30T06:23:02;9.00;;;3.90;;
77152;SDS011;66124;51.146;17.072;2023-01-30T06:25:32;5.50;;;3.00;;
77152;SDS011;66124;51.146;17.072;2023-01-30T06:28:01;11.30;;;5.30;;
77152;SDS011;66124;51.146;17.072;2023-01-30T06:30:31;8.50;;;4.50;;
77152;SDS011;66124;51.146;17.072;2023-01-30T06:47:14;8.50;;;4.50;;
77152;SDS011;66124;51.146;17.072;2023-01-30T06:49:43;8.20;;;4.30;;
77152;SDS011;66124;51.146;17.072;2023-01-30T06:52:13;8.50;;;4.20;;
77152;SDS011;66124;51.146;17.072;2023-01-30T06:54:42;8.30;;;5.00;;
77152;SDS011;66124;51.146;17.072;2023-01-30T06:57:11;7.90;;;3.00;;
77152;SDS011;66124;51.146;17.072;2023-01-30T06:59:42;9.40;;;4.80;;
77152;SDS011;66124;51.146;17.072;2023-01-30T07:02:13;7.30;;;3.80;;
77152;SDS011;66124;51.146;17.072;2023-01-30T07:04:42;11.90;;;6.40;;
77152;SDS011;66124;51.146;17.072;2023-01-30T07:08:38;9.10;;;3.80;;
77152;SDS011;66124;51.146;17.072;2023-01-30T07:11:07;16.00;;;7.40;;
77152;SDS011;66124;51.146;17.072;2023-01-30T07:13:36;14.00;;;6.60;;
77152;SDS011;66124;51.146;17.072;2023-01-30T07:16:06;15.90;;;7.70;;
77152;SDS011;66124;51.146;17.072;2023-01-30T07:18:36;5.40;;;3.00;;
77152;SDS011;66124;51.146;17.072;2023-01-30T07:21:07;12.40;;;6.00;;
77152;SDS011;66124;51.146;17.072;2023-01-30T07:23:37;14.70;;;7.10;;
77152;SDS011;66124;51.146;17.072;2023-01-30T07:26:06;8.70;;;4.70;;
77152;SDS011;66124;51.146;17.072;2023-01-30T07:28:36;12.80;;;5.70;;
77152;SDS011;66124;51.146;17.072;2023-01-30T07:31:05;12.10;;;5.90;;
77152;SDS011;66124;51.146;17.072;2023-01-30T07:33:35;4.90;;;3.10;;
77152;SDS011;66124;51.146;17.072;2023-01-30T07:36:05;9.70;;;5.50;;
77152;SDS011;66124;51.146;17.072;2023-01-30T07:38:35;10.10;;;4.50;;
77152;SDS011;66124;51.146;17.072;2023-01-30T07:41:04;13.10;;;6.80;;
77152;SDS011;66124;51.146;17.072;2023-01-30T07:43:34;12.70;;;6.60;;
77152;SDS011;66124;51.146;17.072;2023-01-30T07:46:03;14.10;;;7.30;;
77152;SDS011;66124;51.146;17.072;2023-01-30T07:48:33;8.80;;;4.50;;
77152;SDS011;66124;51.146;17.072;2023-01-30T07:51:02;7.00;;;3.80;;
77152;SDS011;66124;51.146;17.072;2023-01-30T07:53:32;7.60;;;3.60;;
77152;SDS011;66124;51.146;17.072;2023-01-30T07:56:06;7.00;;;4.40;;
77152;SDS011;66124;51.146;17.072;2023-01-30T07:58:36;11.20;;;5.00;;
77152;SDS011;66124;51.146;17.072;2023-01-30T08:01:06;10.90;;;5.30;;
77152;SDS011;66124;51.146;17.072;2023-01-30T08:03:35;11.90;;;5.80;;
77152;SDS011;66124;51.146;17.072;2023-01-30T08:06:05;12.30;;;7.60;;
77152;SDS011;66124;51.146;17.072;2023-01-30T08:08:35;9.10;;;4.60;;
77152;SDS011;66124;51.146;17.072;2023-01-30T08:11:05;10.90;;;4.50;;
77152;SDS011;66124;51.146;17.072;2023-01-30T08:13:34;11.40;;;6.40;;
77152;SDS011;66124;51.146;17.072;2023-01-30T08:16:04;12.90;;;6.90;;
77152;SDS011;66124;51.146;17.072;2023-01-30T08:21:03;3.90;;;1.70;;
77152;SDS011;66124;51.146;17.072;2023-01-30T08:28:40;10.10;;;5.10;;
77152;SDS011;66124;51.146;17.072;2023-01-30T08:31:10;8.80;;;4.80;;
77152;SDS011;66124;51.146;17.072;2023-01-30T08:33:41;8.60;;;4.50;;
77152;SDS011;66124;51.146;17.072;2023-01-30T08:36:10;8.10;;;3.80;;
77152;SDS011;66124;51.146;17.072;2023-01-30T08:38:40;8.50;;;3.60;;
77152;SDS011;66124;51.146;17.072;2023-01-30T08:41:09;13.60;;;6.00;;
77152;SDS011;66124;51.146;17.072;2023-01-30T08:43:38;12.40;;;5.70;;
77152;SDS011;66124;51.146;17.072;2023-01-30T08:46:08;5.80;;;4.10;;
77152;SDS011;66124;51.146;17.072;2023-01-30T08:48:37;6.40;;;3.00;;
77152;SDS011;66124;51.146;17.072;2023-01-30T08:51:06;11.30;;;6.10;;
77152;SDS011;66124;51.146;17.072;2023-01-30T08:53:36;12.80;;;5.60;;
77152;SDS011;66124;51.146;17.072;2023-01-30T08:56:06;10.50;;;4.90;;
77152;SDS011;66124;51.146;17.072;2023-01-30T08:58:35;11.20;;;5.00;;
77152;SDS011;66124;51.146;17.072;2023-01-30T09:01:05;8.80;;;4.80;;
77152;SDS011;66124;51.146;17.072;2023-01-30T09:03:35;10.50;;;4.80;;
77152;SDS011;66124;51.146;17.072;2023-01-30T09:06:05;12.10;;;6.70;;
77152;SDS011;66124;51.146;17.072;2023-01-30T09:08:34;11.10;;;5.90;;
77152;SDS011;66124;51.146;17.072;2023-01-30T09:11:04;12.10;;;7.10;;
77152;SDS011;66124;51.146;17.072;2023-01-30T09:13:34;11.60;;;5.80;;
77152;SDS011;66124;51.146;17.072;2023-01-30T09:16:04;13.40;;;7.60;;
77152;SDS011;66124;51.146;17.072;2023-01-30T09:18:36;12.20;;;6.60;;
77152;SDS011;66124;51.146;17.072;2023-01-30T09:23:34;10.30;;;5.20;;
77152;SDS011;66124;51.146;17.072;2023-01-30T09:26:04;10.60;;;5.80;;
77152;SDS011;66124;51.146;17.072;2023-01-30T09:28:34;11.10;;;4.70;;
77152;SDS011;66124;51.146;17.072;2023-01-30T09:31:03;8.90;;;3.60;;
77152;SDS011;66124;51.146;17.072;2023-01-30T09:33:33;10.00;;;5.20;;
77152;SDS011;66124;51.146;17.072;2023-01-30T09:36:02;8.60;;;4.30;;
77152;SDS011;66124;51.146;17.072;2023-01-30T09:52:15;8.60;;;5.60;;
77152;SDS011;66124;51.146;17.072;2023-01-30T09:54:53;6.20;;;3.20;;
77152;SDS011;66124;51.146;17.072;2023-01-30T09:57:27;5.70;;;3.10;;
77152;SDS011;66124;51.146;17.072;2023-01-30T09:59:58;9.70;;;4.80;;
77152;SDS011;66124;51.146;17.072;2023-01-30T10:02:38;7.90;;;4.00;;
77152;SDS011;66124;51.146;17.072;2023-01-30T10:05:12;6.20;;;3.30;;
77152;SDS011;66124;51.146;17.072;2023-01-30T10:08:01;6.90;;;4.10;;
77152;SDS011;66124;51.146;17.072;2023-01-30T10:10:45;7.50;;;4.60;;
77152;SDS011;66124;51.146;17.072;2023-01-30T10:13:26;11.90;;;5.80;;
77152;SDS011;66124;51.146;17.072;2023-01-30T10:16:06;6.10;;;3.10;;
77152;SDS011;66124;51.146;17.072;2023-01-30T10:18:45;8.20;;;3.50;;
77152;SDS011;66124;51.146;17.072;2023-01-30T10:21:28;6.60;;;3.60;;
77152;SDS011;66124;51.146;17.072;2023-01-30T10:29:10;9.00;;;4.00;;
77152;SDS011;66124;51.146;17.072;2023-01-30T10:31:45;6.20;;;3.00;;
77152;SDS011;66124;51.146;17.072;2023-01-30T10:34:19;10.70;;;5.30;;
77152;SDS011;66124;51.146;17.072;2023-01-30T10:36:53;7.50;;;3.90;;
77152;SDS011;66124;51.146;17.072;2023-01-30T10:39:33;8.40;;;4.00;;
77152;SDS011;66124;51.146;17.072;2023-01-30T10:42:09;8.00;;;3.70;;
77152;SDS011;66124;51.146;17.072;2023-01-30T10:44:40;7.80;;;3.90;;
77152;SDS011;66124;51.146;17.072;2023-01-30T10:47:30;7.20;;;4.10;;
77152;SDS011;66124;51.146;17.072;2023-01-30T10:50:13;7.90;;;4.00;;
77152;SDS011;66124;51.146;17.072;2023-01-30T10:52:46;9.90;;;4.10;;
77152;SDS011;66124;51.146;17.072;2023-01-30T10:55:27;6.00;;;3.30;;
77152;SDS011;66124;51.146;17.072;2023-01-30T10:58:02;7.90;;;4.30;;
77152;SDS011;66124;51.146;17.072;2023-01-30T11:00:38;6.20;;;3.60;;
77152;SDS011;66124;51.146;17.072;2023-01-30T11:03:17;4.80;;;3.00;;
77152;SDS011;66124;51.146;17.072;2023-01-30T11:05:53;7.60;;;4.20;;
77152;SDS011;66124;51.146;17.072;2023-01-30T11:08:26;9.70;;;5.10;;
77152;SDS011;66124;51.146;17.072;2023-01-30T11:13:28;6.80;;;3.00;;
77152;SDS011;66124;51.146;17.072;2023-01-30T11:15:59;6.80;;;3.10;;
77152;SDS011;66124;51.146;17.072;2023-01-30T11:18:33;7.60;;;4.30;;
77152;SDS011;66124;51.146;17.072;2023-01-30T11:21:17;6.80;;;3.50;;
77152;SDS011;66124;51.146;17.072;2023-01-30T11:23:50;4.50;;;2.50;;
77152;SDS011;66124;51.146;17.072;2023-01-30T11:26:22;5.00;;;3.40;;
77152;SDS011;66124;51.146;17.072;2023-01-30T11:28:55;6.40;;;3.10;;
77152;SDS011;66124;51.146;17.072;2023-01-30T11:31:25;3.50;;;2.20;;
77152;SDS011;66124;51.146;17.072;2023-01-30T11:33:59;4.80;;;2.40;;
77152;SDS011;66124;51.146;17.072;2023-01-30T11:36:32;7.60;;;1.90;;
77152;SDS011;66124;51.146;17.072;2023-01-30T11:39:03;5.60;;;2.60;;
77152;SDS011;66124;51.146;17.072;2023-01-30T12:01:04;6.50;;;3.70;;
77152;SDS011;66124;51.146;17.072;2023-01-30T12:03:38;5.70;;;3.80;;
77152;SDS011;66124;51.146;17.072;2023-01-30T12:06:21;6.80;;;3.90;;
77152;SDS011;66124;51.146;17.072;2023-01-30T12:08:55;7.90;;;2.50;;
77152;SDS011;66124;51.146;17.072;2023-01-30T12:11:26;5.50;;;3.60;;
77152;SDS011;66124;51.146;17.072;2023-01-30T12:14:03;4.30;;;2.50;;
77152;SDS011;66124;51.146;17.072;2023-01-30T12:16:45;6.40;;;3.10;;
77152;SDS011;66124;51.146;17.072;2023-01-30T12:19:25;4.00;;;2.20;;
77152;SDS011;66124;51.146;17.072;2023-01-30T12:22:03;3.60;;;2.20;;
77152;SDS011;66124;51.146;17.072;2023-01-30T12:24:43;3.80;;;2.00;;
77152;SDS011;66124;51.146;17.072;2023-01-30T12:27:21;2.70;;;2.20;;
77152;SDS011;66124;51.146;17.072;2023-01-30T12:29:58;3.80;;;2.20;;
77152;SDS011;66124;51.146;17.072;2023-01-30T12:32:31;2.70;;;2.20;;
77152;SDS011;66124;51.146;17.072;2023-01-30T12:35:08;4.00;;;2.20;;
77152;SDS011;66124;51.146;17.072;2023-01-30T12:37:49;3.50;;;2.10;;
77152;SDS011;66124;51.146;17.072;2023-01-30T12:40:31;4.30;;;2.80;;
77152;SDS011;66124;51.146;17.072;2023-01-30T12:43:19;6.60;;;2.40;;
77152;SDS011;66124;51.146;17.072;2023-01-30T12:46:03;3.80;;;1.80;;
77152;SDS011;66124;51.146;17.072;2023-01-30T12:48:46;4.00;;;2.10;;
77152;SDS011;66124;51.146;17.072;2023-01-30T12:51:37;3.00;;;1.60;;
77152;SDS011;66124;51.146;17.072;2023-01-30T12:54:19;3.90;;;2.10;;
77152;SDS011;66124;51.146;17.072;2023-01-30T12:57:08;4.20;;;2.40;;
77152;SDS011;66124;51.146;17.072;2023-01-30T12:59:50;4.50;;;2.30;;
77152;SDS011;66124;51.146;17.072;2023-01-30T13:02:46;5.30;;;2.40;;
77152;SDS011;66124;51.146;17.072;2023-01-30T13:08:07;2.90;;;1.80;;
77152;SDS011;66124;51.146;17.072;2023-01-30T13:10:49;2.10;;;1.50;;
77152;SDS011;66124;51.146;17.072;2023-01-30T13:22:19;2.60;;;1.70;;
77152;SDS011;66124;51.146;17.072;2023-01-30T13:24:56;4.00;;;1.60;;
77152;SDS011;66124;51.146;17.072;2023-01-30T13:27:31;2.30;;;1.70;;
77152;SDS011;66124;51.146;17.072;2023-01-30T13:30:04;2.50;;;1.60;;
77152;SDS011;66124;51.146;17.072;2023-01-30T13:32:42;3.20;;;1.40;;
77152;SDS011;66124;51.146;17.072;2023-01-30T13:35:16;2.10;;;1.40;;
77152;SDS011;66124;51.146;17.072;2023-01-30T13:37:48;2.70;;;1.50;;
77152;SDS011;66124;51.146;17.072;2023-01-30T13:42:51;2.90;;;1.70;;
77152;SDS011;66124;51.146;17.072;2023-01-30T13:45:24;2.30;;;1.10;;
77152;SDS011;66124;51.146;17.072;2023-01-30T13:48:00;1.60;;;1.20;;
77152;SDS011;66124;51.146;17.072;2023-01-30T13:50:47;5.40;;;1.50;;
77152;SDS011;66124;51.146;17.072;2023-01-30T13:53:24;3.60;;;1.10;;
77152;SDS011;66124;51.146;17.072;2023-01-30T13:56:03;2.60;;;1.30;;
77152;SDS011;66124;51.146;17.072;2023-01-30T13:58:41;5.50;;;1.90;;
77152;SDS011;66124;51.146;17.072;2023-01-30T14:01:16;3.00;;;1.50;;
77152;SDS011;66124;51.146;17.072;2023-01-30T14:03:46;3.70;;;1.10;;
77152;SDS011;66124;51.146;17.072;2023-01-30T14:09:15;4.20;;;1.00;;
77152;SDS011;66124;51.146;17.072;2023-01-30T14:11:54;4.10;;;1.50;;
77152;SDS011;66124;51.146;17.072;2023-01-30T14:14:31;3.50;;;1.30;;
77152;SDS011;66124;51.146;17.072;2023-01-30T14:17:12;2.60;;;1.40;;
77152;SDS011;66124;51.146;17.072;2023-01-30T14:19:52;2.40;;;1.20;;
77152;SDS011;66124;51.146;17.072;2023-01-30T14:22:34;4.20;;;1.60;;
77152;SDS011;66124;51.146;17.072;2023-01-30T14:31:45;3.20;;;1.30;;
77152;SDS011;66124;51.146;17.072;2023-01-30T14:40:48;2.80;;;1.70;;
77152;SDS011;66124;51.146;17.072;2023-01-30T14:43:51;4.20;;;1.60;;
77152;SDS011;66124;51.146;17.072;2023-01-30T14:46:39;3.30;;;1.10;;
77152;SDS011;66124;51.146;17.072;2023-01-30T14:51:59;3.80;;;1.30;;
77152;SDS011;66124;51.146;17.072;2023-01-30T14:54:32;3.50;;;1.40;;
77152;SDS011;66124;51.146;17.072;2023-01-30T14:57:14;2.70;;;1.70;;
77152;SDS011;66124;51.146;17.072;2023-01-30T14:59:48;3.00;;;1.10;;
77152;SDS011;66124;51.146;17.072;2023-01-30T15:02:22;3.10;;;1.40;;
77152;SDS011;66124;51.146;17.072;2023-01-30T15:04:57;4.30;;;1.50;;
77152;SDS011;66124;51.146;17.072;2023-01-30T15:07:35;4.20;;;1.60;;
77152;SDS011;66124;51.146;17.072;2023-01-30T15:10:13;3.30;;;1.00;;
77152;SDS011;66124;51.146;17.072;2023-01-30T15:16:03;1.90;;;1.30;;
77152;SDS011;66124;51.146;17.072;2023-01-30T15:18:51;3.00;;;1.50;;
77152;SDS011;66124;51.146;17.072;2023-01-30T15:21:36;2.50;;;1.10;;
77152;SDS011;66124;51.146;17.072;2023-01-30T15:24:19;2.60;;;1.10;;
77152;SDS011;66124;51.146;17.072;2023-01-30T15:27:06;3.50;;;1.30;;
77152;SDS011;66124;51.146;17.072;2023-01-30T15:29:49;1.60;;;1.00;;
77152;SDS011;66124;51.146;17.072;2023-01-30T15:32:32;2.50;;;1.20;;
77152;SDS011;66124;51.146;17.072;2023-01-30T15:35:09;4.60;;;2.00;;
77152;SDS011;66124;51.146;17.072;2023-01-30T15:37:48;2.90;;;1.30;;
77152;SDS011;66124;51.146;17.072;2023-01-30T15:40:19;4.90;;;1.20;;
77152;SDS011;66124;51.146;17.072;2023-01-30T15:42:52;3.00;;;1.50;;
77152;SDS011;66124;51.146;17.072;2023-01-30T15:45:37;3.80;;;0.90;;
77152;SDS011;66124;51.146;17.072;2023-01-30T15:48:22;4.00;;;1.30;;
77152;SDS011;66124;51.146;17.072;2023-01-30T16:01:07;3.30;;;1.10;;
77152;SDS011;66124;51.146;17.072;2023-01-30T16:03:39;2.70;;;1.60;;
77152;SDS011;66124;51.146;17.072;2023-01-30T16:06:20;3.70;;;1.30;;
77152;SDS011;66124;51.146;17.072;2023-01-30T16:08:55;4.20;;;1.20;;
77152;SDS011;66124;51.146;17.072;2023-01-30T16:11:33;6.20;;;1.80;;
77152;SDS011;66124;51.146;17.072;2023-01-30T16:14:05;5.50;;;1.70;;
77152;SDS011;66124;51.146;17.072;2023-01-30T16:16:37;3.00;;;1.30;;
77152;SDS011;66124;51.146;17.072;2023-01-30T16:19:14;3.40;;;1.20;;
77152;SDS011;66124;51.146;17.072;2023-01-30T16:21:49;3.30;;;1.30;;
77152;SDS011;66124;51.146;17.072;2023-01-30T16:24:20;4.40;;;1.50;;
77152;SDS011;66124;51.146;17.072;2023-01-30T16:26:52;3.20;;;1.50;;
77152;SDS011;66124;51.146;17.072;2023-01-30T16:29:25;5.40;;;1.50;;
77152;SDS011;66124;51.146;17.072;2023-01-30T16:31:56;5.40;;;1.30;;
77152;SDS011;66124;51.146;17.072;2023-01-30T16:34:30;3.70;;;1.60;;
77152;SDS011;66124;51.146;17.072;2023-01-30T16:37:04;3.20;;;1.40;;
77152;SDS011;66124;51.146;17.072;2023-01-30T16:40:00;3.40;;;1.20;;
77152;SDS011;66124;51.146;17.072;2023-01-30T16:42:38;4.00;;;1.60;;
77152;SDS011;66124;51.146;17.072;2023-01-30T16:45:32;3.10;;;1.50;;
77152;SDS011;66124;51.146;17.072;2023-01-30T16:48:30;3.90;;;1.50;;
77152;SDS011;66124;51.146;17.072;2023-01-30T16:51:10;3.40;;;1.80;;
77152;SDS011;66124;51.146;17.072;2023-01-30T16:53:51;3.50;;;1.30;;
77152;SDS011;66124;51.146;17.072;2023-01-30T16:56:25;2.70;;;1.00;;
77152;SDS011;66124;51.146;17.072;2023-01-30T16:58:57;3.80;;;1.60;;
77152;SDS011;66124;51.146;17.072;2023-01-30T17:04:03;3.90;;;0.90;;
77152;SDS011;66124;51.146;17.072;2023-01-30T17:06:40;6.70;;;1.30;;
77152;SDS011;66124;51.146;17.072;2023-01-30T17:17:22;5.00;;;1.80;;
77152;SDS011;66124;51.146;17.072;2023-01-30T17:19:52;4.60;;;1.40;;
77152;SDS011;66124;51.146;17.072;2023-01-30T17:22:21;5.90;;;1.70;;
77152;SDS011;66124;51.146;17.072;2023-01-30T17:24:50;4.70;;;1.60;;
77152;SDS011;66124;51.146;17.072;2023-01-30T17:27:24;6.80;;;1.90;;
77152;SDS011;66124;51.146;17.072;2023-01-30T17:29:55;3.60;;;1.10;;
77152;SDS011;66124;51.146;17.072;2023-01-30T17:32:24;6.30;;;2.10;;
77152;SDS011;66124;51.146;17.072;2023-01-30T17:34:54;2.50;;;1.50;;
77152;SDS011;66124;51.146;17.072;2023-01-30T17:37:23;2.70;;;1.40;;
77152;SDS011;66124;51.146;17.072;2023-01-30T17:39:53;3.60;;;1.20;;
77152;SDS011;66124;51.146;17.072;2023-01-30T17:42:22;4.40;;;2.50;;
77152;SDS011;66124;51.146;17.072;2023-01-30T17:44:51;2.80;;;1.30;;
77152;SDS011;66124;51.146;17.072;2023-01-30T17:47:20;2.70;;;1.20;;
77152;SDS011;66124;51.146;17.072;2023-01-30T17:49:50;4.20;;;1.20;;
77152;SDS011;66124;51.146;17.072;2023-01-30T17:52:19;2.30;;;1.10;;
77152;SDS011;66124;51.146;17.072;2023-01-30T17:54:49;2.60;;;1.00;;
77152;SDS011;66124;51.146;17.072;2023-01-30T17:57:18;1.90;;;1.20;;